Time;durP1;ratioP1;P1;durP2;ratioP2;P2;SDS_P1;SDS_P2;PMS_P1;PMS_P2;Temp;Humidity;BMP_temperature;BMP_pressure;BME280_temperature;BME280_humidity;BME280_pressure;Samples;Min_cycle;Max_cycle;Signal;HPM_P1;HPM_P2
2022/06/15 00:01:17;;;;;;;11.88;6.57;;;15.00;99.90;;;;;;5011667;28;20049;-71
2022/06/15 00:03:43;;;;;;;11.02;6.70;;;15.50;99.90;;;;;;5031098;28;20437;-70
2022/06/15 00:06:19;;;;;;;12.07;6.78;;;15.00;99.90;;;;;;5030655;28;20037;-70
2022/06/15 00:08:45;;;;;;;;;;;15.00;99.90;;;;;;5012267;28;20087;-70
2022/06/15 00:11:17;;;;;;;11.95;6.15;;;14.90;99.90;;;;;;4999502;28;19928;-70
2022/06/15 00:13:44;;;;;;;9.40;5.60;;;14.90;99.90;;;;;;4993027;28;20049;-71
2022/06/15 00:16:10;;;;;;;11.45;6.65;;;14.90;99.90;;;;;;4991973;28;20038;-70
2022/06/15 00:18:37;;;;;;;11.80;6.15;;;15.10;99.90;;;;;;5030895;28;20045;-70
2022/06/15 00:21:04;;;;;;;12.90;6.07;;;14.80;99.90;;;;;;5029677;28;20049;-70
2022/06/15 00:23:30;;;;;;;11.70;6.05;;;14.80;99.90;;;;;;5030248;28;20382;-70
2022/06/15 00:25:57;;;;;;;10.25;6.00;;;14.80;99.90;;;;;;5029669;28;20040;-70
2022/06/15 00:28:24;;;;;;;10.32;5.75;;;15.10;99.90;;;;;;5029839;28;20056;-70
2022/06/15 00:30:50;;;;;;;10.32;6.15;;;14.70;99.90;;;;;;5030063;28;20047;-70
2022/06/15 00:33:19;;;;;;;10.38;5.80;;;14.70;99.90;;;;;;5030536;28;20073;-70
2022/06/15 00:35:59;;;;;;;12.27;5.88;;;14.70;99.90;;;;;;5030573;28;20045;-70
2022/06/15 00:38:28;;;;;;;10.00;6.07;;;14.60;99.90;;;;;;5029323;28;20049;-70
2022/06/15 00:40:54;;;;;;;12.48;5.95;;;14.30;99.90;;;;;;5030459;28;20049;-70
2022/06/15 00:43:35;;;;;;;13.20;5.82;;;14.60;99.90;;;;;;5011851;28;20068;-70
2022/06/15 00:46:34;;;;;;;11.52;5.93;;;14.60;99.90;;;;;;5031326;28;20038;-70
2022/06/15 00:49:14;;;;;;;10.25;6.20;;;14.60;99.90;;;;;;4957174;28;20054;-70
2022/06/15 00:51:40;;;;;;;14.35;5.65;;;14.50;99.90;;;;;;5009641;28;20050;-70
2022/06/15 00:54:07;;;;;;;11.48;5.38;;;14.40;99.90;;;;;;5025752;28;20103;-70
2022/06/15 00:56:34;;;;;;;11.80;6.43;;;14.50;99.90;;;;;;5028723;28;20128;-71
2022/06/15 00:59:07;;;;;;;10.15;5.70;;;14.40;99.90;;;;;;5029909;28;20045;-70
2022/06/15 01:01:33;;;;;;;12.07;6.00;;;14.50;99.90;;;;;;5030558;28;20048;-70
2022/06/15 01:04:01;;;;;;;10.60;5.72;;;14.40;99.90;;;;;;5030067;28;20397;-70
2022/06/15 01:07:00;;;;;;;11.00;5.85;;;14.40;99.90;;;;;;5029656;28;20096;-71
2022/06/15 01:09:34;;;;;;;12.85;5.68;;;14.30;99.90;;;;;;5011765;28;20056;-71
2022/06/15 01:12:18;;;;;;;8.88;5.90;;;14.30;99.90;;;;;;5029527;28;20048;-70
2022/06/15 01:15:02;;;;;;;11.32;5.78;;;14.30;99.90;;;;;;5029524;28;20500;-70
2022/06/15 01:17:34;;;;;;;11.18;6.10;;;14.20;99.90;;;;;;5027999;28;20045;-71
2022/06/15 01:20:15;;;;;;;10.43;5.60;;;14.20;99.90;;;;;;5013529;28;20046;-70
2022/06/15 01:23:28;;;;;;;11.75;5.82;;;14.20;99.90;;;;;;5013411;28;20053;-70
2022/06/15 01:26:27;;;;;;;10.02;5.80;;;14.20;99.90;;;;;;4929214;29;20063;-70
2022/06/15 01:29:26;;;;;;;11.73;5.85;;;14.10;99.90;;;;;;4895479;29;20055;-70
2022/06/15 01:32:11;;;;;;;11.45;5.60;;;14.10;99.90;;;;;;5010797;28;20069;-70
2022/06/15 01:34:56;;;;;;;12.80;5.82;;;14.00;99.90;;;;;;5029636;28;20063;-70
2022/06/15 01:37:40;;;;;;;14.75;5.57;;;14.00;99.90;;;;;;5028737;28;20498;-71
2022/06/15 01:40:18;;;;;;;10.40;5.70;;;14.20;99.90;;;;;;5028607;28;20129;-70
2022/06/15 01:43:08;;;;;;;12.20;5.80;;;14.00;99.90;;;;;;5005201;28;20092;-70
2022/06/15 01:45:36;;;;;;;11.73;5.28;;;14.00;99.90;;;;;;5009684;28;20104;-70
2022/06/15 01:48:05;;;;;;;9.30;5.07;;;13.90;99.90;;;;;;5010601;28;20057;-71
2022/06/15 01:50:49;;;;;;;10.57;5.25;;;13.90;99.90;;;;;;5029259;28;20053;-70
2022/06/15 01:53:24;;;;;;;11.50;5.03;;;13.90;99.90;;;;;;5011332;28;20433;-71
2022/06/15 01:56:08;;;;;;;10.68;5.72;;;13.90;99.90;;;;;;5028553;28;20049;-70
2022/06/15 01:58:38;;;;;;;9.02;5.15;;;13.80;99.90;;;;;;5011326;28;20072;-70
2022/06/15 02:01:08;;;;;;;8.93;5.55;;;13.80;99.90;;;;;;5027587;28;20056;-70
2022/06/15 02:04:05;;;;;;;8.00;5.13;;;13.90;99.90;;;;;;5028271;28;20125;-71
2022/06/15 02:06:45;;;;;;;10.10;5.18;;;13.80;99.90;;;;;;5020061;28;20069;-71
2022/06/15 02:09:20;;;;;;;9.88;5.30;;;13.90;99.90;;;;;;5027768;28;20038;-71
2022/06/15 02:11:45;;;;;;;12.93;4.97;;;13.80;99.90;;;;;;5028239;28;20051;-71
2022/06/15 02:14:23;;;;;;;10.07;4.90;;;14.40;99.90;;;;;;5010843;28;20393;-71
2022/06/15 02:17:01;;;;;;;8.43;5.07;;;13.70;99.90;;;;;;5028234;28;20071;-71
2022/06/15 02:19:32;;;;;;;10.38;5.35;;;13.70;99.90;;;;;;5028314;28;20037;-71
2022/06/15 02:22:03;;;;;;;10.95;5.22;;;13.70;99.90;;;;;;5009641;28;20048;-70
2022/06/15 02:24:31;;;;;;;12.13;5.68;;;13.90;99.90;;;;;;5028497;28;20045;-71
2022/06/15 02:26:57;;;;;;;9.15;5.22;;;14.20;99.90;;;;;;5028325;28;20444;-70
2022/06/15 02:29:27;;;;;;;6.80;5.00;;;14.40;99.90;;;;;;5028158;28;20049;-71
2022/06/15 02:31:57;;;;;;;11.27;5.45;;;13.60;99.90;;;;;;5027818;28;20477;-70
2022/06/15 02:34:24;;;;;;;7.82;4.82;;;13.60;99.90;;;;;;5007036;28;20053;-70
2022/06/15 02:36:50;;;;;;;10.00;5.75;;;13.60;99.90;;;;;;5007625;28;20045;-70
2022/06/15 02:39:16;;;;;;;14.98;6.10;;;14.20;99.90;;;;;;5008419;28;20053;-70
2022/06/15 02:41:42;;;;;;;9.70;5.22;;;13.50;99.90;;;;;;5012530;28;20038;-70
2022/06/15 02:44:12;;;;;;;9.40;5.32;;;13.60;99.90;;;;;;5011889;28;20441;-71
2022/06/15 02:46:45;;;;;;;11.73;5.63;;;13.50;99.90;;;;;;5027276;28;20429;-70
2022/06/15 02:49:11;;;;;;;10.70;5.65;;;13.50;99.90;;;;;;5027342;28;20079;-70
2022/06/15 02:51:46;;;;;;;8.18;5.32;;;13.80;99.90;;;;;;5010422;28;20076;-70
2022/06/15 02:54:57;;;;;;;12.98;6.00;;;13.40;99.90;;;;;;5027553;28;20042;-71
2022/06/15 02:57:23;;;;;;;8.90;5.32;;;13.40;99.90;;;;;;5024670;28;20054;-70
2022/06/15 02:59:50;;;;;;;11.35;5.75;;;13.40;99.90;;;;;;5015957;28;20406;-70
2022/06/15 03:02:16;;;;;;;8.30;5.50;;;13.40;99.90;;;;;;5030397;28;20045;-70
2022/06/15 03:04:42;;;;;;;9.88;5.47;;;14.20;99.90;;;;;;5031831;28;20037;-70
2022/06/15 03:07:09;;;;;;;9.00;5.32;;;14.10;99.90;;;;;;5034084;28;20049;-70
2022/06/15 03:09:35;;;;;;;8.90;5.38;;;13.60;99.90;;;;;;5014627;28;20124;-71
2022/06/15 03:12:01;;;;;;;13.13;6.18;;;13.40;99.90;;;;;;5031494;28;20117;-70
2022/06/15 03:14:26;;;;;;;12.07;5.85;;;13.40;99.90;;;;;;5031913;28;20042;-71
2022/06/15 03:16:52;;;;;;;9.60;5.60;;;13.40;99.90;;;;;;5030676;28;20046;-71
2022/06/15 03:19:17;;;;;;;9.18;5.82;;;13.50;99.90;;;;;;5031514;28;20368;-71
2022/06/15 03:21:43;;;;;;;9.40;5.80;;;13.50;99.90;;;;;;5013319;28;20049;-71
2022/06/15 03:24:09;;;;;;;11.52;6.30;;;13.80;99.90;;;;;;5012878;28;20065;-71
2022/06/15 03:26:34;;;;;;;10.80;6.22;;;13.60;99.90;;;;;;5031713;28;20041;-70
2022/06/15 03:29:00;;;;;;;12.85;5.78;;;13.70;99.90;;;;;;5032036;28;20053;-70
2022/06/15 03:31:29;;;;;;;11.27;5.68;;;14.70;99.90;;;;;;5023627;28;20046;-70
2022/06/15 03:33:54;;;;;;;9.65;5.43;;;13.70;99.90;;;;;;5012135;28;20483;-70
2022/06/15 03:36:20;;;;;;;11.40;6.10;;;14.10;99.90;;;;;;5011221;28;20045;-71
2022/06/15 03:38:46;;;;;;;10.02;5.50;;;14.00;99.90;;;;;;5014820;28;20041;-71
2022/06/15 03:41:12;;;;;;;10.38;5.47;;;13.80;99.90;;;;;;5013339;28;20056;-70
2022/06/15 03:43:39;;;;;;;8.95;5.40;;;14.00;99.90;;;;;;5030908;28;20053;-71
2022/06/15 03:46:05;;;;;;;9.65;5.57;;;13.80;99.90;;;;;;5000027;28;20121;-71
2022/06/15 03:48:31;;;;;;;10.35;5.40;;;13.90;99.90;;;;;;4995696;28;20045;-70
2022/06/15 03:50:56;;;;;;;9.38;5.22;;;13.90;99.90;;;;;;5012442;28;20097;-70
2022/06/15 03:53:22;;;;;;;10.73;5.45;;;14.00;99.90;;;;;;5024418;28;20139;-71
2022/06/15 03:55:48;;;;;;;11.45;5.55;;;14.00;99.90;;;;;;5015067;28;20236;-70
2022/06/15 03:58:16;;;;;;;11.93;5.70;;;14.10;99.90;;;;;;5010221;28;20400;-70
2022/06/15 04:00:43;;;;;;;10.15;5.13;;;14.10;99.90;;;;;;5009876;28;20565;-71
2022/06/15 04:03:09;;;;;;;10.23;4.97;;;14.20;99.90;;;;;;5010805;28;20045;-71
2022/06/15 04:05:49;;;;;;;11.00;5.00;;;14.20;99.90;;;;;;5025857;28;20041;-71
2022/06/15 04:08:35;;;;;;;6.43;4.30;;;14.40;99.90;;;;;;5011255;28;20102;-70
2022/06/15 04:14:00;;;;;;;11.32;4.47;;;14.30;99.90;;;;;;5031136;28;20451;-70
2022/06/15 04:16:26;;;;;;;10.07;4.18;;;14.30;99.90;;;;;;5010798;28;20041;-70
2022/06/15 04:18:52;;;;;;;12.48;4.70;;;15.00;99.90;;;;;;5030273;28;20516;-70
2022/06/15 04:21:17;;;;;;;8.80;4.20;;;14.40;99.90;;;;;;5030117;28;20045;-70
2022/06/15 04:23:43;;;;;;;9.13;4.68;;;14.50;99.90;;;;;;5032057;28;20049;-71
2022/06/15 04:26:09;;;;;;;9.73;4.10;;;14.50;99.90;;;;;;5030653;28;20042;-70
2022/06/15 04:28:40;;;;;;;9.23;4.25;;;14.60;99.90;;;;;;5029499;28;20041;-70
2022/06/15 04:31:06;;;;;;;10.85;4.40;;;14.70;99.90;;;;;;5026520;28;20550;-70
2022/06/15 04:33:32;;;;;;;11.77;4.30;;;15.20;99.90;;;;;;5029019;28;20172;-71
2022/06/15 04:35:57;;;;;;;10.20;4.63;;;14.80;99.90;;;;;;5030203;28;20124;-70
2022/06/15 04:38:24;;;;;;;11.40;4.40;;;15.20;99.90;;;;;;5029075;28;20444;-71
2022/06/15 04:40:50;;;;;;;7.82;4.32;;;14.80;99.90;;;;;;5029709;28;20167;-70
2022/06/15 04:43:16;;;;;;;10.45;4.38;;;15.10;99.90;;;;;;5029967;28;20045;-70
2022/06/15 04:45:41;;;;;;;8.85;4.07;;;14.90;99.90;;;;;;5010862;28;20487;-70
2022/06/15 04:48:09;;;;;;;9.60;4.65;;;14.90;99.90;;;;;;5029068;28;20502;-71
2022/06/15 04:50:35;;;;;;;12.48;4.25;;;15.00;99.90;;;;;;5032084;28;20069;-70
2022/06/15 04:53:02;;;;;;;11.77;4.07;;;15.10;99.90;;;;;;5031307;28;20045;-70
2022/06/15 04:55:29;;;;;;;9.77;4.20;;;15.10;99.90;;;;;;5031953;28;20059;-70
2022/06/15 04:57:57;;;;;;;9.90;4.43;;;15.10;99.90;;;;;;5031973;28;20092;-70
2022/06/15 05:00:26;;;;;;;8.88;3.55;;;15.50;99.90;;;;;;5029872;28;20243;-70
2022/06/15 05:02:52;;;;;;;10.65;4.03;;;15.20;99.90;;;;;;5010600;28;20108;-70
2022/06/15 05:05:18;;;;;;;12.10;4.35;;;15.90;99.90;;;;;;5031447;28;20521;-70
2022/06/15 05:07:45;;;;;;;8.38;4.20;;;15.30;99.90;;;;;;5010631;28;20075;-70
2022/06/15 05:10:16;;;;;;;10.00;3.97;;;15.60;99.90;;;;;;5025558;28;20052;-70
2022/06/15 05:12:42;;;;;;;10.23;4.57;;;15.30;99.90;;;;;;5030281;28;20049;-72
2022/06/15 05:15:08;;;;;;;7.30;4.03;;;15.60;99.90;;;;;;5032154;28;20117;-70
2022/06/15 05:17:34;;;;;;;14.07;4.72;;;15.40;99.90;;;;;;5012332;28;20042;-70
2022/06/15 05:20:00;;;;;;;6.80;4.53;;;15.50;99.90;;;;;;5031708;28;20064;-71
2022/06/15 05:22:26;;;;;;;8.80;5.05;;;15.50;99.90;;;;;;4993712;28;20049;-70
2022/06/15 05:24:51;;;;;;;8.73;4.53;;;15.60;99.90;;;;;;5026838;28;20037;-70
2022/06/15 05:27:17;;;;;;;9.40;4.90;;;15.60;99.90;;;;;;5028972;28;20042;-71
2022/06/15 05:29:43;;;;;;;9.90;5.10;;;15.80;99.90;;;;;;5029790;28;20445;-71
2022/06/15 05:32:09;;;;;;;11.80;5.30;;;16.30;99.90;;;;;;5027689;28;20485;-71
2022/06/15 05:34:35;;;;;;;12.23;5.47;;;15.70;99.90;;;;;;5028481;28;20041;-71
2022/06/15 05:37:01;;;;;;;10.68;4.97;;;15.80;99.90;;;;;;5027840;28;20128;-71
2022/06/15 05:39:27;;;;;;;8.35;4.72;;;15.80;99.90;;;;;;5027919;28;20084;-71
2022/06/15 05:41:53;;;;;;;9.65;4.88;;;15.90;99.90;;;;;;5029256;28;20085;-71
2022/06/15 05:46:44;;;;;;;9.07;4.70;;;15.90;99.90;;;;;;5025935;28;20458;-71
2022/06/15 05:49:10;;;;;;;10.15;4.95;;;16.50;99.90;;;;;;5027894;28;20095;-71
2022/06/15 05:51:37;;;;;;;10.50;5.30;;;15.90;99.90;;;;;;5027614;28;20537;-71
2022/06/15 05:54:03;;;;;;;12.38;5.22;;;16.00;99.90;;;;;;5017036;28;20502;-71
2022/06/15 05:56:28;;;;;;;12.68;4.68;;;16.00;99.90;;;;;;5010288;28;20137;-71
2022/06/15 05:58:54;;;;;;;9.35;4.90;;;16.10;99.90;;;;;;5010680;28;20057;-72
2022/06/15 06:01:28;;;;;;;12.13;5.10;;;16.10;99.90;;;;;;5009435;28;20134;-71
2022/06/15 06:03:54;;;;;;;10.23;4.53;;;16.20;99.90;;;;;;5029761;28;20041;-71
2022/06/15 06:06:20;;;;;;;8.15;4.45;;;16.40;99.90;;;;;;5012111;28;20075;-71
2022/06/15 06:08:46;;;;;;;9.98;5.15;;;16.50;99.90;;;;;;5030304;28;20100;-71
2022/06/15 06:11:12;;;;;;;9.65;5.07;;;16.30;99.90;;;;;;5028386;28;20145;-71
2022/06/15 06:13:38;;;;;;;11.98;5.05;;;16.20;99.90;;;;;;5009757;28;20087;-72
2022/06/15 06:16:04;;;;;;;11.23;4.68;;;16.20;99.90;;;;;;5029294;28;20452;-71
2022/06/15 06:18:30;;;;;;;9.68;4.95;;;16.10;99.90;;;;;;5028155;28;20033;-70
2022/06/15 06:20:56;;;;;;;8.63;4.20;;;16.10;99.90;;;;;;5027938;28;20045;-70
2022/06/15 06:23:21;;;;;;;11.02;4.40;;;16.30;99.90;;;;;;5026888;28;20124;-71
2022/06/15 06:25:51;;;;;;;10.05;4.65;;;16.20;99.90;;;;;;5028076;28;20358;-71
2022/06/15 06:28:40;;;;;;;9.48;5.07;;;16.20;99.90;;;;;;5026780;28;20052;-71
2022/06/15 06:31:09;;;;;;;8.70;4.60;;;16.20;99.90;;;;;;5026962;28;20037;-71
2022/06/15 06:33:37;;;;;;;9.75;4.82;;;16.10;99.90;;;;;;5027565;28;20041;-71
2022/06/15 06:36:30;;;;;;;8.68;4.70;;;16.20;99.90;;;;;;5027274;28;20041;-72
2022/06/15 06:38:57;;;;;;;6.90;4.07;;;16.30;99.90;;;;;;4989505;28;20071;-71
2022/06/15 06:41:25;;;;;;;9.55;4.70;;;16.30;99.90;;;;;;5026969;28;20409;-70
2022/06/15 06:43:51;;;;;;;8.15;3.92;;;16.30;99.90;;;;;;5010400;28;20057;-70
2022/06/15 06:46:17;;;;;;;9.38;4.35;;;16.30;99.90;;;;;;5007349;28;20055;-70
2022/06/15 06:48:43;;;;;;;9.07;3.78;;;16.40;99.90;;;;;;5027563;28;20113;-71
2022/06/15 06:51:09;;;;;;;9.15;3.78;;;16.50;99.90;;;;;;5010123;28;20025;-70
2022/06/15 06:53:35;;;;;;;10.13;3.50;;;16.70;99.90;;;;;;5026077;28;20469;-71
2022/06/15 06:56:07;;;;;;;6.70;3.28;;;16.70;99.90;;;;;;5027045;28;20046;-71
2022/06/15 06:58:33;;;;;;;10.30;3.65;;;17.00;99.90;;;;;;5008510;28;20096;-71
2022/06/15 07:00:59;;;;;;;7.63;3.60;;;17.10;99.90;;;;;;5009730;28;20041;-71
2022/06/15 07:03:25;;;;;;;6.38;3.50;;;17.30;99.90;;;;;;5026540;28;20049;-71
2022/06/15 07:05:51;;;;;;;8.50;3.35;;;17.50;99.90;;;;;;5027792;28;20068;-70
2022/06/15 07:08:17;;;;;;;9.30;3.70;;;17.80;99.90;;;;;;5026845;28;20050;-71
2022/06/15 07:10:43;;;;;;;8.07;3.22;;;17.90;99.90;;;;;;5026559;28;20048;-71
2022/06/15 07:13:09;;;;;;;7.22;2.90;;;18.10;99.90;;;;;;5027064;28;20386;-71
2022/06/15 07:15:36;;;;;;;5.75;2.45;;;18.30;99.90;;;;;;5006578;28;20045;-71
2022/06/15 07:18:03;;;;;;;8.10;2.60;;;18.40;99.90;;;;;;5026499;28;20068;-71
2022/06/15 07:20:30;;;;;;;8.05;2.45;;;18.60;99.90;;;;;;5027628;28;20037;-71
2022/06/15 07:22:57;;;;;;;5.78;2.40;;;18.80;99.90;;;;;;5025152;28;20210;-71
2022/06/15 07:25:24;;;;;;;6.00;2.55;;;18.90;99.90;;;;;;5027013;28;20487;-71
2022/06/15 07:27:49;;;;;;;5.95;2.60;;;19.00;99.90;;;;;;5028422;28;20128;-71
2022/06/15 07:30:22;;;;;;;5.78;2.17;;;19.00;99.90;;;;;;5029621;28;20109;-71
2022/06/15 07:32:49;;;;;;;6.93;2.53;;;19.20;99.90;;;;;;5026896;28;20041;-71
2022/06/15 07:35:22;;;;;;;8.68;2.85;;;19.20;99.90;;;;;;5026878;28;20045;-71
2022/06/15 07:37:49;;;;;;;11.32;3.10;;;19.30;99.90;;;;;;5025558;28;20461;-71
2022/06/15 07:40:15;;;;;;;6.18;2.72;;;19.40;99.90;;;;;;5006331;28;20045;-71
2022/06/15 07:42:41;;;;;;;5.55;2.60;;;19.40;99.90;;;;;;5017602;28;20046;-71
2022/06/15 07:45:09;;;;;;;7.78;2.40;;;19.60;99.90;;;;;;5009326;28;20037;-70
2022/06/15 07:50:19;;;;;;;5.97;2.10;;;19.80;99.90;;;;;;5025528;28;20061;-70
2022/06/15 07:52:48;;;;;;;7.63;2.25;;;19.90;99.90;;;;;;5009911;28;20404;-70
2022/06/15 07:55:18;;;;;;;5.22;2.50;;;20.10;99.90;;;;;;5023443;28;20053;-71
2022/06/15 07:57:45;;;;;;;6.32;1.95;;;20.30;99.90;;;;;;5029883;28;20049;-71
2022/06/15 08:00:12;;;;;;;6.10;2.33;;;20.40;99.90;;;;;;5030306;28;20061;-71
2022/06/15 08:02:37;;;;;;;5.82;2.30;;;20.50;99.90;;;;;;5029359;28;20056;-70
2022/06/15 08:05:03;;;;;;;5.85;2.20;;;20.50;99.90;;;;;;5028963;28;20043;-71
2022/06/15 08:07:29;;;;;;;5.35;2.40;;;20.60;99.90;;;;;;5029359;28;20045;-71
2022/06/15 08:09:55;;;;;;;5.63;2.50;;;20.70;99.90;;;;;;5030040;28;20341;-71
2022/06/15 08:12:23;;;;;;;7.57;2.50;;;20.70;99.90;;;;;;5028591;28;20090;-71
2022/06/15 08:14:55;;;;;;;7.78;2.60;;;20.80;99.90;;;;;;5030308;28;20052;-74
2022/06/15 08:17:28;;;;;;;6.15;2.70;;;20.80;99.90;;;;;;5029029;28;20049;-71
2022/06/15 08:19:59;;;;;;;6.03;2.65;;;20.80;99.90;;;;;;5030801;28;20080;-71
2022/06/15 08:22:26;;;;;;;5.50;2.40;;;21.00;99.90;;;;;;5029586;28;20061;-71
2022/06/15 08:24:52;;;;;;;5.72;2.40;;;20.90;99.90;;;;;;5029132;28;20065;-71
2022/06/15 08:27:21;;;;;;;6.47;2.90;;;21.00;99.90;;;;;;5029306;28;20045;-71
2022/06/15 08:29:49;;;;;;;5.75;2.70;;;21.20;99.90;;;;;;5012358;28;20053;-71
2022/06/15 08:32:15;;;;;;;6.45;2.65;;;21.20;99.90;;;;;;5010690;28;20049;-72
2022/06/15 08:34:41;;;;;;;7.13;2.72;;;21.30;99.90;;;;;;5012846;28;20596;-72
2022/06/15 08:37:11;;;;;;;8.02;2.53;;;21.40;99.90;;;;;;5029141;28;20363;-72
2022/06/15 08:39:37;;;;;;;9.25;2.67;;;21.60;99.90;;;;;;5012080;28;20085;-72
2022/06/15 08:42:59;;;;;;;5.93;2.58;;;21.70;99.90;;;;;;5011614;28;20042;-71
2022/06/15 08:45:47;;;;;;;7.53;2.60;;;21.80;99.90;;;;;;4913766;29;20091;-71
2022/06/15 08:48:23;;;;;;;6.68;2.40;;;21.70;99.90;;;;;;4929883;29;20110;-72
2022/06/15 08:50:57;;;;;;;6.60;2.55;;;21.60;99.90;;;;;;5010528;28;20494;-73
2022/06/15 08:53:40;;;;;;;9.32;2.75;;;21.60;99.90;;;;;;5028218;28;20049;-75
2022/06/15 08:56:08;;;;;;;9.68;2.70;;;21.60;99.90;;;;;;5011328;28;20046;-75
2022/06/15 08:58:54;;;;;;;5.35;2.42;;;21.50;99.90;;;;;;5027793;28;20045;-75
2022/06/15 09:01:30;;;;;;;5.85;2.58;;;21.40;99.90;;;;;;5007339;28;20038;-76
2022/06/15 09:04:05;;;;;;;8.45;2.53;;;21.40;99.90;;;;;;5010327;28;20442;-75
2022/06/15 09:06:37;;;;;;;6.45;2.63;;;21.40;99.90;;;;;;5010300;28;20037;-75
2022/06/15 09:09:19;;;;;;;6.32;2.42;;;21.30;99.90;;;;;;4994231;28;20521;-75
2022/06/15 09:11:52;;;;;;;6.20;2.22;;;21.40;99.90;;;;;;5012733;28;20037;-75
2022/06/15 09:14:32;;;;;;;5.03;2.30;;;21.40;99.90;;;;;;5028718;28;20045;-74
2022/06/15 09:17:19;;;;;;;7.32;2.30;;;21.50;99.90;;;;;;5029027;28;20079;-74
2022/06/15 09:20:04;;;;;;;5.13;2.40;;;21.60;99.90;;;;;;5029452;28;20052;-74
2022/06/15 09:22:39;;;;;;;7.03;2.20;;;21.60;99.90;;;;;;5008546;28;20049;-74
2022/06/15 09:25:47;;;;;;;6.32;2.20;;;21.70;99.90;;;;;;5006935;28;20050;-75
2022/06/15 09:28:26;;;;;;;5.55;2.20;;;21.80;99.90;;;;;;4931961;29;20054;-75
2022/06/15 09:30:54;;;;;;;7.65;2.20;;;21.90;99.90;;;;;;5016702;28;20053;-75
2022/06/15 09:33:25;;;;;;;4.45;2.00;;;22.00;99.90;;;;;;4992918;28;20419;-74
2022/06/15 09:35:56;;;;;;;5.32;2.25;;;22.20;99.90;;;;;;4991972;28;20197;-75
2022/06/15 09:38:22;;;;;;;5.43;1.95;;;22.30;99.90;;;;;;4989641;28;20384;-74
2022/06/15 09:41:00;;;;;;;6.40;2.38;;;22.50;99.90;;;;;;5005843;28;20095;-75
2022/06/15 09:43:26;;;;;;;4.72;2.10;;;22.60;99.90;;;;;;5007926;28;20038;-74
2022/06/15 09:46:05;;;;;;;6.97;2.40;;;22.70;99.90;;;;;;5025154;28;20045;-75
2022/06/15 09:48:52;;;;;;;7.40;2.10;;;22.80;99.90;;;;;;5026998;28;20053;-75
2022/06/15 09:51:32;;;;;;;6.28;2.25;;;23.00;99.90;;;;;;5028282;28;20052;-75
2022/06/15 09:54:07;;;;;;;7.47;2.30;;;23.20;99.90;;;;;;5027084;28;20064;-75
2022/06/15 09:56:34;;;;;;;7.22;2.30;;;23.10;99.90;;;;;;5027062;28;20080;-75
2022/06/15 09:59:13;;;;;;;6.25;2.50;;;23.00;99.90;;;;;;5027436;28;20092;-71
2022/06/15 10:01:42;;;;;;;3.97;2.05;;;22.80;99.90;;;;;;4989375;28;20050;-71
2022/06/15 10:04:22;;;;;;;5.88;2.20;;;22.60;99.90;;;;;;4990583;28;20042;-71
2022/06/15 10:06:52;;;;;;;5.18;2.00;;;22.40;99.90;;;;;;5006608;28;20065;-71
2022/06/15 10:09:26;;;;;;;6.22;1.83;;;22.30;99.90;;;;;;5005593;28;20200;-71
2022/06/15 10:11:56;;;;;;;9.35;2.28;;;22.30;99.90;;;;;;4991865;28;20123;-72
2022/06/15 10:14:26;;;;;;;5.78;2.13;;;22.20;99.90;;;;;;5027327;28;20049;-72
2022/06/15 10:16:57;;;;;;;3.75;1.90;;;22.10;99.90;;;;;;5027934;28;20417;-72
2022/06/15 10:19:24;;;;;;;3.83;2.10;;;22.00;99.90;;;;;;5032228;28;20382;-72
2022/06/15 10:22:19;;;;;;;6.82;2.30;;;21.90;99.90;;;;;;5007923;28;20490;-72
2022/06/15 10:24:49;;;;;;;5.20;2.17;;;22.10;99.90;;;;;;5026285;28;20064;-72
2022/06/15 10:27:30;;;;;;;5.28;2.00;;;22.60;99.90;;;;;;5009103;28;20053;-70
2022/06/15 10:30:08;;;;;;;5.28;2.10;;;23.50;99.90;;;;;;5027748;28;20045;-71
2022/06/15 10:32:56;;;;;;;4.45;2.00;;;25.10;98.10;;;;;;5026503;28;20355;-71
2022/06/15 10:35:21;;;;;;;5.75;2.03;;;25.80;97.00;;;;;;4993804;28;20639;-71
2022/06/15 10:37:50;;;;;;;6.47;2.10;;;26.40;96.20;;;;;;5025788;28;20401;-72
2022/06/15 10:40:30;;;;;;;5.82;1.85;;;27.80;94.70;;;;;;5026830;28;20065;-72
2022/06/15 10:43:03;;;;;;;6.32;2.20;;;29.50;91.20;;;;;;5027727;28;20060;-71
2022/06/15 10:45:42;;;;;;;4.30;1.70;;;30.30;90.50;;;;;;5026144;28;20140;-72
2022/06/15 10:48:19;;;;;;;3.72;1.80;;;29.80;86.50;;;;;;5009076;28;20084;-71
2022/06/15 10:50:57;;;;;;;7.63;2.17;;;28.70;87.90;;;;;;5011101;28;20119;-71
2022/06/15 10:53:34;;;;;;;4.43;1.83;;;27.70;88.40;;;;;;5027139;28;20116;-71
2022/06/15 11:02:06;;;;;;;5.72;1.90;;;26.70;91.70;;;;;;5025796;28;20047;-73
2022/06/15 11:04:35;;;;;;;4.53;1.80;;;27.00;90.90;;;;;;5029358;28;20064;-72
2022/06/15 11:07:03;;;;;;;4.43;1.90;;;27.40;91.50;;;;;;5029073;28;20463;-72
2022/06/15 11:09:40;;;;;;;5.65;1.90;;;27.60;91.30;;;;;;5029060;28;20034;-72
2022/06/15 11:12:30;;;;;;;4.90;1.92;;;27.60;90.70;;;;;;5027061;28;20050;-72
2022/06/15 11:15:05;;;;;;;5.00;1.90;;;27.70;88.80;;;;;;5029360;28;20421;-72
2022/06/15 11:20:30;;;;;;;6.35;2.13;;;26.70;90.80;;;;;;5030410;28;20054;-71
2022/06/15 11:23:07;;;;;;;5.05;2.15;;;26.40;91.20;;;;;;5032154;28;20049;-71
2022/06/15 11:25:45;;;;;;;7.65;2.33;;;26.10;91.50;;;;;;5013174;28;20049;-71
2022/06/15 11:28:24;;;;;;;5.43;2.47;;;25.80;91.90;;;;;;5030115;28;20072;-71
2022/06/15 11:31:03;;;;;;;6.00;2.30;;;25.60;92.00;;;;;;5030970;28;20050;-71
2022/06/15 11:33:46;;;;;;;6.88;2.50;;;26.10;92.30;;;;;;5030921;28;20409;-71
2022/06/15 11:36:46;;;;;;;6.43;3.10;;;27.50;91.50;;;;;;5030754;28;20056;-71
2022/06/15 11:39:36;;;;;;;5.78;2.40;;;28.20;90.00;;;;;;4999836;28;20111;-71
2022/06/15 11:42:03;;;;;;;4.63;2.28;;;28.40;89.70;;;;;;5030538;28;20080;-72
2022/06/15 11:44:37;;;;;;;8.50;2.70;;;28.20;89.40;;;;;;5030432;28;20380;-71
2022/06/15 11:47:27;;;;;;;8.40;2.40;;;28.00;89.00;;;;;;5029815;28;20079;-71
2022/06/15 11:50:05;;;;;;;5.70;2.45;;;28.70;89.00;;;;;;5011244;28;20058;-71
2022/06/15 11:52:45;;;;;;;5.45;2.05;;;29.70;87.30;;;;;;5011745;28;20383;-71
2022/06/15 11:55:16;;;;;;;7.15;2.60;;;29.80;85.10;;;;;;5010515;28;20072;-72
2022/06/15 11:57:57;;;;;;;6.70;2.67;;;29.10;84.40;;;;;;5010505;28;20058;-72
2022/06/15 12:00:52;;;;;;;4.43;2.30;;;29.00;85.70;;;;;;4993620;28;20037;-71
2022/06/15 12:03:43;;;;;;;6.72;2.40;;;29.80;83.80;;;;;;5009388;28;20050;-71
2022/06/15 12:06:34;;;;;;;6.95;2.60;;;30.90;82.20;;;;;;5010436;28;20089;-70
2022/06/15 12:09:13;;;;;;;4.22;2.15;;;31.60;78.60;;;;;;5010673;28;20049;-73
2022/06/15 12:15:06;;;;;;;6.40;2.40;;;30.90;78.40;;;;;;5013159;28;20042;-71
2022/06/15 12:18:02;;;;;;;6.35;2.38;;;30.50;77.00;;;;;;5010285;28;20057;-73
2022/06/15 12:20:37;;;;;;;;;;;30.10;76.60;;;;;;4993041;28;20393;-73
2022/06/15 12:23:21;;;;;;;8.80;2.53;;;29.50;76.50;;;;;;5009397;28;20389;-73
2022/06/15 12:26:19;;;;;;;7.30;2.80;;;28.80;77.40;;;;;;5009574;28;20042;-72
2022/06/15 12:28:53;;;;;;;4.47;2.30;;;28.20;76.40;;;;;;5012927;28;20061;-73
2022/06/15 12:31:36;;;;;;;6.40;3.17;;;27.60;77.80;;;;;;5008725;28;20176;-72
2022/06/15 12:34:23;;;;;;;7.57;2.83;;;27.10;78.10;;;;;;4993342;28;20358;-73
2022/06/15 12:36:59;;;;;;;6.00;3.00;;;26.60;78.20;;;;;;5009437;28;20088;-72
2022/06/15 12:39:31;;;;;;;5.68;2.85;;;26.40;79.60;;;;;;4991388;28;20092;-72
2022/06/15 12:42:09;;;;;;;5.10;2.70;;;26.50;80.40;;;;;;4993195;28;20073;-73
2022/06/15 12:44:51;;;;;;;4.82;2.47;;;26.50;80.50;;;;;;5010419;28;20398;-72
2022/06/15 12:47:19;;;;;;;5.10;2.50;;;26.50;79.60;;;;;;5009065;28;20062;-72
2022/06/15 12:50:01;;;;;;;5.40;2.38;;;26.60;80.10;;;;;;5009320;28;20045;-72
2022/06/15 12:52:32;;;;;;;6.00;2.90;;;26.70;80.00;;;;;;5008458;28;20163;-72
2022/06/15 12:55:07;;;;;;;10.40;2.92;;;26.50;80.40;;;;;;4992306;28;21150;-72
2022/06/15 12:57:55;;;;;;;6.75;3.38;;;26.40;80.70;;;;;;4992349;28;20169;-72
2022/06/15 13:00:25;;;;;;;4.63;2.70;;;26.30;79.30;;;;;;5009032;28;20093;-72
2022/06/15 13:02:57;;;;;;;9.30;3.03;;;26.20;81.10;;;;;;5009423;28;20041;-72
2022/06/15 13:05:29;;;;;;;7.43;2.72;;;26.10;81.20;;;;;;5009569;28;20442;-72
2022/06/15 13:08:16;;;;;;;7.05;2.55;;;26.10;81.30;;;;;;4991073;28;20046;-72
2022/06/15 13:10:54;;;;;;;7.38;2.70;;;26.20;80.70;;;;;;5009552;28;20434;-72
2022/06/15 13:13:46;;;;;;;7.15;2.50;;;26.10;80.70;;;;;;5008743;28;20453;-72
2022/06/15 13:16:34;;;;;;;4.53;2.40;;;26.10;80.50;;;;;;5010279;28;20428;-72
2022/06/15 13:19:03;;;;;;;6.07;2.60;;;26.10;81.20;;;;;;4991410;28;20069;-72
2022/06/15 13:21:48;;;;;;;4.32;2.50;;;26.00;81.00;;;;;;5008338;28;20110;-72
2022/06/15 13:24:14;;;;;;;5.75;2.40;;;26.00;81.40;;;;;;4991274;28;20041;-72
2022/06/15 13:26:41;;;;;;;5.15;2.42;;;25.90;81.10;;;;;;5008715;28;20038;-71
2022/06/15 13:29:10;;;;;;;4.53;2.40;;;25.80;81.20;;;;;;5008802;28;20553;-71
2022/06/15 13:32:07;;;;;;;5.30;2.25;;;25.70;81.20;;;;;;5007685;28;20470;-71